createdAt,value
2022-12-01T00:01:33.780Z,101782.09
2022-12-01T00:04:02.144Z,101773.72
2022-12-01T00:06:31.381Z,101777.97
2022-12-01T00:09:19.933Z,101771.50
2022-12-01T00:11:48.293Z,101769.59
2022-12-01T00:14:16.762Z,101775.38
2022-12-01T00:16:44.908Z,101771.72
2022-12-01T00:19:12.876Z,101770.69
2022-12-01T00:21:42.134Z,101766.91
2022-12-01T00:24:10.678Z,101768.56
2022-12-01T00:26:38.554Z,101770.69
2022-12-01T00:29:06.416Z,101774.91
2022-12-01T00:31:35.232Z,101772.22
2022-12-01T00:34:06.893Z,101765.00
2022-12-01T00:36:38.856Z,101772.78
2022-12-01T00:39:08.255Z,101770.09
2022-12-01T00:41:36.169Z,101773.03
2022-12-01T00:44:04.740Z,101774.91
2022-12-01T00:46:32.748Z,101771.03
2022-12-01T00:49:00.784Z,101772.34
2022-12-01T00:51:28.621Z,101769.25
2022-12-01T00:53:56.537Z,101777.88
2022-12-01T00:56:25.738Z,101770.31
2022-12-01T01:04:03.053Z,101775.38
2022-12-01T01:07:05.903Z,101782.72
2022-12-01T01:09:34.124Z,101781.16
2022-12-01T01:12:03.370Z,101778.34
2022-12-01T01:14:31.328Z,101780.59
2022-12-01T01:16:59.218Z,101784.59
2022-12-01T01:19:27.111Z,101783.75
2022-12-01T01:21:55.242Z,101778.69
2022-12-01T01:24:23.099Z,101790.47
2022-12-01T01:26:51.059Z,101789.88
2022-12-01T01:29:20.502Z,101794.03
2022-12-01T01:31:48.307Z,101791.31
2022-12-01T01:34:16.412Z,101789.41
2022-12-01T01:36:46.301Z,101787.66
2022-12-01T01:39:14.223Z,101797.09
2022-12-01T01:41:42.079Z,101798.53
2022-12-01T01:44:42.987Z,101794.38
2022-12-01T01:47:12.966Z,101792.38
2022-12-01T01:49:42.153Z,101803.81
2022-12-01T01:52:10.767Z,101806.16
2022-12-01T01:54:40.431Z,101809.59
2022-12-01T01:57:10.230Z,101810.44
2022-12-01T01:59:39.863Z,101801.81
2022-12-01T02:02:08.996Z,101807.59
2022-12-01T02:04:40.236Z,101808.78
2022-12-01T02:07:08.550Z,101802.50
2022-12-01T02:09:36.672Z,101808.38
2022-12-01T02:12:13.494Z,101805.91
2022-12-01T02:14:49.336Z,101805.81
2022-12-01T02:17:23.502Z,101799.44
2022-12-01T02:20:07.205Z,101807.72
2022-12-01T02:22:41.476Z,101799.69
2022-12-01T02:25:19.696Z,101799.69
2022-12-01T02:27:58.008Z,101794.50
2022-12-01T02:30:32.261Z,101799.00
2022-12-01T02:33:05.429Z,101797.78
2022-12-01T02:35:35.687Z,101791.44
2022-12-01T02:38:09.018Z,101794.72
2022-12-01T02:40:41.488Z,101795.22
2022-12-01T02:43:13.977Z,101786.00
2022-12-01T02:45:47.013Z,101787.06
2022-12-01T02:48:17.507Z,101790.25
2022-12-01T02:50:46.968Z,101785.06
2022-12-01T02:53:16.852Z,101784.47
2022-12-01T02:55:48.859Z,101788.00
2022-12-01T02:58:16.914Z,101790.63
2022-12-01T03:00:52.313Z,101798.84
2022-12-01T03:03:32.889Z,101799.69
2022-12-01T03:06:09.400Z,101795.44
2022-12-01T03:08:46.010Z,101793.78
2022-12-01T03:11:26.997Z,101794.97
2022-12-01T03:14:00.068Z,101799.00
2022-12-01T03:16:34.563Z,101798.03
2022-12-01T03:19:08.495Z,101794.72
2022-12-01T03:21:40.529Z,101790.94
2022-12-01T03:24:11.517Z,101792.97
2022-12-01T03:26:43.682Z,101792.03
2022-12-01T03:29:14.763Z,101798.03
2022-12-01T03:31:46.742Z,101789.53
2022-12-01T03:34:17.965Z,101794.97
2022-12-01T03:36:48.574Z,101795.69
2022-12-01T03:39:18.452Z,101800.41
2022-12-01T03:41:49.520Z,101798.84
2022-12-01T03:44:21.718Z,101796.88
2022-12-01T03:46:54.291Z,101803.81
2022-12-01T03:49:23.787Z,101805.13
2022-12-01T03:52:03.209Z,101799.81
2022-12-01T03:54:37.318Z,101802.06
2022-12-01T03:57:09.096Z,101799.34
2022-12-01T03:59:38.710Z,101799.56
2022-12-01T04:02:08.563Z,101808.19
2022-12-01T04:04:37.171Z,101805.34
2022-12-01T04:07:05.472Z,101805.81
2022-12-01T04:09:33.355Z,101801.13
2022-12-01T04:12:19.214Z,101811.25
2022-12-01T04:14:47.487Z,101808.19
2022-12-01T04:17:16.705Z,101799.94
2022-12-01T04:19:44.639Z,101802.66
2022-12-01T04:22:12.481Z,101803.72
2022-12-01T04:24:40.374Z,101800.53
2022-12-01T04:27:08.322Z,101801.34
2022-12-01T04:29:38.567Z,101800.72
2022-12-01T04:32:06.660Z,101808.41
2022-12-01T04:34:35.972Z,101803.25
2022-12-01T04:37:04.575Z,101812.09
2022-12-01T04:39:32.657Z,101796.16
2022-12-01T04:42:00.547Z,101796.53
2022-12-01T04:44:34.335Z,101796.75
2022-12-01T04:47:03.312Z,101799.34
2022-12-01T04:49:31.264Z,101792.84
2022-12-01T04:52:00.716Z,101793.09
2022-12-01T04:54:28.732Z,101795.44
2022-12-01T04:56:56.656Z,101795.78
2022-12-01T04:59:24.749Z,101796.50
2022-12-01T05:01:52.747Z,101792.50
2022-12-01T05:04:20.706Z,101793.78
2022-12-01T05:06:48.630Z,101792.63
2022-12-01T05:09:19.881Z,101797.44
2022-12-01T05:11:48.071Z,101796.38
2022-12-01T05:14:15.984Z,101797.44
2022-12-01T05:16:43.982Z,101800.28
2022-12-01T05:19:30.207Z,101802.63
2022-12-01T05:21:58.210Z,101797.44
2022-12-01T05:24:27.471Z,101801.34
2022-12-01T05:26:55.330Z,101803.81
2022-12-01T05:29:23.262Z,101792.97
2022-12-01T05:31:51.205Z,101801.78
2022-12-01T05:34:19.235Z,101804.88
2022-12-01T05:36:47.081Z,101805.25
2022-12-01T05:39:18.270Z,101800.50
2022-12-01T05:41:48.099Z,101809.84
2022-12-01T05:44:16.131Z,101800.88
2022-12-01T05:46:44.136Z,101801.22
2022-12-01T05:49:12.064Z,101806.88
2022-12-01T05:51:40.063Z,101806.63
2022-12-01T05:54:23.375Z,101799.91
2022-12-01T05:56:52.793Z,101811.13
2022-12-01T05:59:20.690Z,101814.06
2022-12-01T06:01:48.787Z,101814.06
2022-12-01T06:04:16.801Z,101812.88
2022-12-01T06:06:46.191Z,101816.19
2022-12-01T06:09:14.404Z,101811.50
2022-12-01T06:11:42.404Z,101812.78
2022-12-01T06:14:11.834Z,101815.00
2022-12-01T06:16:39.870Z,101825.97
2022-12-01T06:19:07.764Z,101825.38
2022-12-01T06:21:36.057Z,101821.47
2022-12-01T06:24:04.032Z,101822.44
2022-12-01T06:26:37.627Z,101822.34
2022-12-01T06:29:05.686Z,101829.16
2022-12-01T06:31:34.934Z,101827.41
2022-12-01T06:34:02.793Z,101835.78
2022-12-01T06:36:30.661Z,101825.97
2022-12-01T06:39:00.164Z,101833.28
2022-12-01T06:41:28.235Z,101835.78
2022-12-01T06:43:56.097Z,101835.78
2022-12-01T06:46:24.070Z,101836.56
2022-12-01T06:48:53.366Z,101831.97
2022-12-01T06:51:21.358Z,101833.41
2022-12-01T06:53:49.440Z,101845.44
2022-12-01T06:56:17.679Z,101838.63
2022-12-01T06:58:45.801Z,101835.31
2022-12-01T07:01:14.153Z,101840.13
2022-12-01T07:03:42.839Z,101828.38
2022-12-01T07:06:13.256Z,101841.66
2022-12-01T07:08:41.232Z,101841.28
2022-12-01T07:11:09.987Z,101838.34
2022-12-01T07:13:39.209Z,101838.81
2022-12-01T07:16:07.492Z,101844.50
2022-12-01T07:18:36.877Z,101840.28
2022-12-01T07:21:05.811Z,101844.28
2022-12-01T07:23:35.581Z,101856.56
2022-12-01T07:29:20.317Z,101862.81
2022-12-01T07:31:48.436Z,101860.19
2022-12-01T07:34:23.469Z,101859.25
2022-12-01T07:37:00.382Z,101858.91
2022-12-01T07:39:41.383Z,101858.53
2022-12-01T07:45:38.455Z,101862.22
2022-12-01T07:52:40.754Z,101859.81
2022-12-01T07:56:04.310Z,101861.47
2022-12-01T07:59:16.989Z,101849.25
2022-12-01T08:02:23.195Z,101852.97
2022-12-01T08:09:11.631Z,101862.56
2022-12-01T08:11:48.999Z,101866.44
2022-12-01T08:14:26.508Z,101867.63
2022-12-01T08:24:19.491Z,101874.13
2022-12-01T08:37:57.869Z,101889.28
2022-12-01T08:40:27.682Z,101896.53
2022-12-01T08:43:00.404Z,101894.63
2022-12-01T08:45:29.643Z,101888.97
2022-12-01T08:47:58.903Z,101895.44
2022-12-01T08:53:18.712Z,101895.09
2022-12-01T08:55:46.763Z,101890.47
2022-12-01T08:58:14.493Z,101890.34
2022-12-01T09:00:43.738Z,101889.16
2022-12-01T09:03:11.532Z,101884.81
2022-12-01T09:05:39.339Z,101889.09
2022-12-01T09:08:33.055Z,101883.09
2022-12-01T09:11:01.494Z,101889.19
2022-12-01T09:13:29.672Z,101900.28
2022-12-01T09:15:59.942Z,101888.97
2022-12-01T09:18:28.164Z,101893.34
2022-12-01T09:20:56.501Z,101893.94
2022-12-01T09:23:25.115Z,101894.03
2022-12-01T09:25:53.723Z,101896.97
2022-12-01T09:28:21.515Z,101901.94
2022-12-01T09:30:49.367Z,101910.44
2022-12-01T09:33:18.547Z,101906.09
2022-12-01T09:35:46.815Z,101913.16
2022-12-01T09:38:14.620Z,101913.53
2022-12-01T09:40:43.607Z,101909.84
2022-12-01T09:43:17.325Z,101915.34
2022-12-01T09:45:48.315Z,101909.50
2022-12-01T09:48:22.521Z,101907.03
2022-12-01T09:50:50.482Z,101907.75
2022-12-01T09:53:20.631Z,101905.28
2022-12-01T09:55:49.711Z,101905.28
2022-12-01T09:58:20.945Z,101908.88
2022-12-01T10:00:50.117Z,101907.00
2022-12-01T10:03:23.742Z,101899.97
2022-12-01T10:06:26.161Z,101904.47
2022-12-01T10:08:48.712Z,101901.66
2022-12-01T10:11:29.282Z,101895.78
2022-12-01T10:13:57.246Z,101903.19
2022-12-01T10:16:27.818Z,101899.94
2022-12-01T10:18:59.838Z,101891.44
2022-12-01T10:21:35.736Z,101897.91
2022-12-01T10:24:09.641Z,101892.72
2022-12-01T10:26:43.134Z,101888.63
2022-12-01T10:29:14.725Z,101887.06
2022-12-01T10:31:49.567Z,101885.06
2022-12-01T10:34:22.674Z,101882.38
2022-12-01T10:36:50.755Z,101877.63
2022-12-01T10:39:20.755Z,101876.09
2022-12-01T10:41:49.036Z,101879.25
2022-12-01T10:44:19.468Z,101875.88
2022-12-01T10:46:50.085Z,101868.53
2022-12-01T10:49:20.070Z,101869.94
2022-12-01T10:51:54.373Z,101861.31
2022-12-01T10:54:23.249Z,101860.03
2022-12-01T10:56:55.644Z,101874.41
2022-12-01T10:59:25.916Z,101870.41
2022-12-01T11:01:54.183Z,101867.91
2022-12-01T11:04:29.764Z,101869.22
2022-12-01T11:06:58.158Z,101865.72
2022-12-01T11:09:28.064Z,101872.22
2022-12-01T11:11:57.064Z,101868.63
2022-12-01T11:14:25.981Z,101871.47
2022-12-01T11:16:54.403Z,101875.34
2022-12-01T11:19:29.621Z,101869.09
2022-12-01T11:21:58.553Z,101862.47
2022-12-01T11:24:29.861Z,101857.50
2022-12-01T11:26:58.453Z,101866.84
2022-12-01T11:29:32.644Z,101865.81
2022-12-01T11:32:01.963Z,101871.72
2022-12-01T11:34:35.994Z,101867.81
2022-12-01T11:37:05.333Z,101864.84
2022-12-01T11:39:35.031Z,101860.59
2022-12-01T11:42:04.140Z,101860.25
2022-12-01T11:44:50.796Z,101861.88
2022-12-01T11:47:24.555Z,101860.59
2022-12-01T11:49:56.567Z,101863.66
2022-12-01T11:52:29.847Z,101859.31
2022-12-01T11:55:08.454Z,101860.75
2022-12-01T11:57:39.320Z,101854.72
2022-12-01T12:00:13.313Z,101853.88
2022-12-01T12:02:43.829Z,101856.13
2022-12-01T12:05:30.286Z,101851.41
2022-12-01T12:08:04.942Z,101854.13
2022-12-01T12:10:41.023Z,101849.56
2022-12-01T12:13:20.075Z,101846.88
2022-12-01T12:15:56.129Z,101844.28
2022-12-01T12:18:33.782Z,101842.88
2022-12-01T12:21:06.645Z,101842.50
2022-12-01T12:23:53.213Z,101843.34
2022-12-01T12:26:23.807Z,101846.75
2022-12-01T12:28:56.001Z,101839.22
2022-12-01T12:31:29.038Z,101842.97
2022-12-01T12:34:15.200Z,101835.59
2022-12-01T12:36:44.977Z,101829.56
2022-12-01T12:39:24.302Z,101836.47
2022-12-01T12:41:54.029Z,101824.44
2022-12-01T12:44:37.476Z,101830.47
2022-12-01T12:47:12.441Z,101829.75
2022-12-01T12:49:44.926Z,101819.44
2022-12-01T12:52:14.709Z,101827.59
2022-12-01T12:54:46.251Z,101824.88
2022-12-01T12:57:19.711Z,101818.75
2022-12-01T12:59:51.439Z,101814.44
2022-12-01T13:02:21.970Z,101819.41
2022-12-01T13:04:53.051Z,101821.66
2022-12-01T13:07:27.703Z,101826.50
2022-12-01T13:10:00.944Z,101828.34
2022-12-01T13:12:30.552Z,101833.47
2022-12-01T13:15:01.656Z,101817.75
2022-12-01T13:17:34.264Z,101819.53
2022-12-01T13:20:02.169Z,101812.63
2022-12-01T13:22:31.586Z,101812.38
2022-12-01T13:25:12.478Z,101815.38
2022-12-01T13:27:43.255Z,101814.81
2022-12-01T13:30:19.202Z,101800.13
2022-12-01T13:32:49.993Z,101794.22
2022-12-01T13:35:27.354Z,101800.06
2022-12-01T13:37:58.347Z,101798.78
2022-12-01T13:40:30.318Z,101797.25
2022-12-01T13:43:05.503Z,101793.00
2022-12-01T13:45:37.558Z,101791.38
2022-12-01T13:48:06.250Z,101789.84
2022-12-01T13:51:07.157Z,101793.91
2022-12-01T13:53:35.994Z,101785.69
2022-12-01T13:56:24.414Z,101791.25
2022-12-01T13:58:53.332Z,101793.81
2022-12-01T14:01:40.168Z,101792.91
2022-12-01T14:04:38.237Z,101793.25
2022-12-01T14:07:30.358Z,101797.03
2022-12-01T14:10:00.192Z,101800.47
2022-12-01T14:12:34.435Z,101793.38
2022-12-01T14:15:03.875Z,101797.56
2022-12-01T14:17:32.770Z,101794.38
2022-12-01T14:20:18.776Z,101796.50
2022-12-01T14:22:47.736Z,101792.47
2022-12-01T14:25:26.829Z,101792.47
2022-12-01T14:27:57.552Z,101792.34
2022-12-01T14:30:45.609Z,101791.66
2022-12-01T14:33:32.037Z,101794.50
2022-12-01T14:35:59.948Z,101790.38
2022-12-01T14:38:28.892Z,101801.72
2022-12-01T14:40:57.228Z,101796.97
2022-12-01T14:43:45.022Z,101804.66
2022-12-01T14:46:15.460Z,101804.06
2022-12-01T14:48:45.382Z,101805.97
2022-12-01T14:51:17.810Z,101811.97
2022-12-01T14:53:47.556Z,101797.22
2022-12-01T14:56:17.237Z,101795.22
2022-12-01T14:58:53.331Z,101797.09
2022-12-01T15:01:22.289Z,101790.38
2022-12-01T15:03:52.917Z,101788.13
2022-12-01T15:06:21.712Z,101796.06
2022-12-01T15:09:32.172Z,101792.16
2022-12-01T15:11:54.826Z,101793.81
2022-12-01T15:14:25.776Z,101790.47
2022-12-01T15:16:53.565Z,101786.94
2022-12-01T15:19:25.572Z,101788.81
2022-12-01T15:21:53.528Z,101803.22
2022-12-01T15:24:22.537Z,101808.53
2022-12-01T15:26:51.628Z,101809.09
2022-12-01T15:29:22.150Z,101810.75
2022-12-01T15:31:52.012Z,101824.09
2022-12-01T15:34:21.471Z,101822.53
2022-12-01T15:36:49.323Z,101830.16
2022-12-01T15:39:17.996Z,101823.47
2022-12-01T15:41:47.344Z,101820.16
2022-12-01T15:44:20.564Z,101809.06
2022-12-01T15:46:48.613Z,101811.78
2022-12-01T15:49:19.673Z,101818.50
2022-12-01T15:51:48.811Z,101819.78
2022-12-01T15:54:19.549Z,101816.13
2022-12-01T15:56:51.419Z,101810.81
2022-12-01T15:59:25.112Z,101803.50
2022-12-01T16:01:53.146Z,101806.69
2022-12-01T16:04:23.858Z,101805.47
2022-12-01T16:06:57.697Z,101802.22
2022-12-01T16:09:29.603Z,101797.47
2022-12-01T16:12:05.474Z,101796.75
2022-12-01T16:14:34.319Z,101788.47
2022-12-01T16:17:02.630Z,101793.91
2022-12-01T16:19:32.364Z,101790.00
2022-12-01T16:22:02.788Z,101791.16
2022-12-01T16:24:32.076Z,101795.31
2022-12-01T16:27:01.037Z,101796.13
2022-12-01T16:29:30.654Z,101795.47
2022-12-01T16:34:50.641Z,101799.53
2022-12-01T16:37:18.494Z,101800.34
2022-12-01T16:39:46.584Z,101801.38
2022-12-01T16:42:15.884Z,101802.47
2022-12-01T16:44:44.614Z,101793.38
2022-12-01T16:47:17.283Z,101796.09
2022-12-01T16:49:47.268Z,101804.09
2022-12-01T16:55:07.714Z,101813.56
2022-12-01T16:57:37.423Z,101805.31
2022-12-01T17:00:06.716Z,101813.09
2022-12-01T17:02:42.575Z,101798.63
2022-12-01T17:05:11.326Z,101810.06
2022-12-01T17:07:40.570Z,101811.81
2022-12-01T17:10:08.954Z,101813.53
2022-12-01T17:12:36.742Z,101819.41
2022-12-01T17:15:04.854Z,101821.66
2022-12-01T17:17:32.987Z,101825.53
2022-12-01T17:20:00.772Z,101829.38
2022-12-01T17:22:28.611Z,101828.47
2022-12-01T17:25:02.280Z,101825.91
2022-12-01T17:27:31.430Z,101823.81
2022-12-01T17:30:09.956Z,101827.88
2022-12-01T17:32:37.711Z,101834.56
2022-12-01T17:35:06.023Z,101825.53
2022-12-01T17:37:33.818Z,101828.19
2022-12-01T17:40:02.921Z,101843.66
2022-12-01T17:42:31.405Z,101840.06
2022-12-01T17:44:59.262Z,101842.78
2022-12-01T17:47:28.401Z,101843.28
2022-12-01T17:49:56.637Z,101845.16
2022-12-01T17:52:28.410Z,101840.78
2022-12-01T17:54:56.857Z,101845.69
2022-12-01T17:57:26.327Z,101834.34
2022-12-01T17:59:54.081Z,101839.47
2022-12-01T18:02:21.965Z,101842.22
2022-12-01T18:04:50.163Z,101838.19
2022-12-01T18:07:18.388Z,101844.44
2022-12-01T18:09:46.475Z,101848.31
2022-12-01T18:12:14.265Z,101843.81
2022-12-01T18:14:43.375Z,101840.19
2022-12-01T18:17:11.293Z,101845.69
2022-12-01T18:19:40.357Z,101839.75
2022-12-01T18:22:08.339Z,101844.03
2022-12-01T18:24:41.630Z,101839.13
2022-12-01T18:27:12.892Z,101848.16
2022-12-01T18:29:42.906Z,101845.88
2022-12-01T18:32:11.077Z,101839.53
2022-12-01T18:34:40.916Z,101845.59
2022-12-01T18:37:08.937Z,101839.84
2022-12-01T18:39:36.735Z,101840.34
2022-12-01T18:42:04.740Z,101841.34
2022-12-01T18:44:32.640Z,101844.56
2022-12-01T18:47:02.534Z,101840.47
2022-12-01T18:49:30.625Z,101842.91
2022-12-01T18:51:59.701Z,101839.13
2022-12-01T18:54:27.505Z,101837.31
2022-12-01T18:56:58.696Z,101841.53
2022-12-01T18:59:26.830Z,101838.75
2022-12-01T19:01:54.589Z,101844.03
2022-12-01T19:04:23.726Z,101837.47
2022-12-01T19:06:51.579Z,101846.22
2022-12-01T19:09:24.351Z,101836.50
2022-12-01T19:11:59.603Z,101841.25
2022-12-01T19:14:28.842Z,101835.38
2022-12-01T19:16:56.862Z,101835.81
2022-12-01T19:19:26.367Z,101831.31
2022-12-01T19:21:56.317Z,101828.44
2022-12-01T19:24:24.127Z,101831.44
2022-12-01T19:26:52.176Z,101824.84
2022-12-01T19:29:20.049Z,101826.34
2022-12-01T19:31:47.862Z,101828.44
2022-12-01T19:34:15.733Z,101834.75
2022-12-01T19:36:44.873Z,101828.53
2022-12-01T19:39:12.897Z,101823.78
2022-12-01T19:41:40.723Z,101826.16
2022-12-01T19:44:08.869Z,101822.94
2022-12-01T19:46:36.689Z,101827.75
2022-12-01T19:49:05.585Z,101835.75
2022-12-01T19:51:34.861Z,101830.19
2022-12-01T19:54:04.544Z,101833.66
2022-12-01T19:56:32.461Z,101826.38
2022-12-01T19:59:00.621Z,101826.28
2022-12-01T20:01:29.000Z,101826.91
2022-12-01T20:03:57.120Z,101830.56
2022-12-01T20:06:25.802Z,101831.84
2022-12-01T20:08:55.034Z,101817.47
2022-12-01T20:11:24.503Z,101829.81
2022-12-01T20:13:52.439Z,101830.28
2022-12-01T20:16:21.320Z,101835.16
2022-12-01T20:18:49.560Z,101831.47
2022-12-01T20:21:21.920Z,101831.69
2022-12-01T20:23:50.980Z,101837.09
2022-12-01T20:26:26.172Z,101827.81
2022-12-01T20:29:11.180Z,101821.78
2022-12-01T20:31:39.684Z,101824.75
2022-12-01T20:34:09.513Z,101825.38
2022-12-01T20:36:37.540Z,101829.06
2022-12-01T20:39:06.609Z,101823.72
2022-12-01T20:41:38.100Z,101825.28
2022-12-01T20:44:08.013Z,101828.97
2022-12-01T20:46:39.632Z,101835.66
2022-12-01T20:49:08.329Z,101831.44
2022-12-01T20:51:36.420Z,101825.03
2022-12-01T20:54:27.468Z,101828.19
2022-12-01T20:56:54.332Z,101837.75
2022-12-01T20:59:24.090Z,101831.13
2022-12-01T21:01:52.096Z,101815.94
2022-12-01T21:04:20.184Z,101827.09
2022-12-01T21:06:49.927Z,101815.66
2022-12-01T21:09:21.159Z,101821.50
2022-12-01T21:12:28.458Z,101819.84
2022-12-01T21:15:02.263Z,101817.38
2022-12-01T21:17:35.922Z,101815.22
2022-12-01T21:20:07.095Z,101820.28
2022-12-01T21:22:35.199Z,101821.22
2022-12-01T21:25:10.960Z,101825.25
2022-12-01T21:27:38.962Z,101814.63
2022-12-01T21:30:17.675Z,101815.59
2022-12-01T21:32:46.732Z,101822.78
2022-12-01T21:35:16.865Z,101810.75
2022-12-01T21:37:44.683Z,101817.00
2022-12-01T21:40:16.729Z,101813.47
2022-12-01T21:42:44.713Z,101798.50
2022-12-01T21:45:20.050Z,101795.94
2022-12-01T21:47:48.258Z,101801.59
2022-12-01T21:50:25.189Z,101805.41
2022-12-01T21:52:59.288Z,101796.91
2022-12-01T21:55:39.157Z,101792.75
2022-12-01T21:58:19.830Z,101797.25
2022-12-01T22:00:52.590Z,101801.16
2022-12-01T22:06:31.735Z,101786.81
2022-12-01T22:09:22.564Z,101789.53
2022-12-01T22:11:53.257Z,101793.59
2022-12-01T22:14:22.496Z,101781.91
2022-12-01T22:16:53.874Z,101786.38
2022-12-01T22:19:24.309Z,101780.84
2022-12-01T22:21:53.904Z,101782.97
2022-12-01T22:24:23.251Z,101779.88
2022-12-01T22:26:53.037Z,101780.53
2022-12-01T22:29:27.606Z,101779.25
2022-12-01T22:32:07.369Z,101775.59
2022-12-01T22:34:35.540Z,101783.34
2022-12-01T22:37:03.260Z,101778.16
2022-12-01T22:39:33.236Z,101781.50
2022-12-01T22:42:01.791Z,101773.84
2022-12-01T22:44:31.565Z,101771.16
2022-12-01T22:47:01.969Z,101777.69
2022-12-01T22:49:30.258Z,101780.59
2022-12-01T22:52:02.722Z,101777.16
2022-12-01T22:54:33.391Z,101782.09
2022-12-01T22:57:09.179Z,101768.53
2022-12-01T22:59:40.314Z,101770.66
2022-12-01T23:02:20.756Z,101768.66
2022-12-01T23:04:50.182Z,101764.25
2022-12-01T23:07:26.744Z,101761.09
2022-12-01T23:09:56.705Z,101766.75
2022-12-01T23:12:28.998Z,101754.69
2022-12-01T23:14:58.374Z,101758.63
2022-12-01T23:17:28.442Z,101763.34
2022-12-01T23:20:02.122Z,101762.75
2022-12-01T23:22:30.112Z,101762.09
2022-12-01T23:24:57.925Z,101763.75
2022-12-01T23:27:25.633Z,101763.47
2022-12-01T23:29:53.465Z,101762.84
2022-12-01T23:32:30.889Z,101747.34
2022-12-01T23:35:00.606Z,101747.69
2022-12-01T23:37:32.627Z,101756.00
2022-12-01T23:40:00.732Z,101744.38
2022-12-01T23:42:28.502Z,101755.25
2022-12-01T23:44:56.304Z,101746.75
2022-12-01T23:47:25.845Z,101742.56
2022-12-01T23:49:56.561Z,101733.63
2022-12-01T23:52:30.689Z,101727.84
2022-12-01T23:54:58.771Z,101728.63
2022-12-01T23:57:26.651Z,101736.94
2022-12-01T23:59:55.826Z,101720.50
